createdAt,value
2022-10-26T00:00:11.530Z,10.28
2022-10-26T00:00:45.124Z,10.25
2022-10-26T00:01:17.851Z,10.24
2022-10-26T00:01:30.580Z,10.25
2022-10-26T00:01:43.485Z,10.23
2022-10-26T00:01:56.184Z,10.22
2022-10-26T00:02:10.139Z,10.22
2022-10-26T00:02:22.984Z,10.20
2022-10-26T00:02:35.736Z,10.21
2022-10-26T00:02:48.667Z,10.20
2022-10-26T00:03:01.390Z,10.19
2022-10-26T00:03:14.660Z,10.18
2022-10-26T00:03:28.234Z,10.18
2022-10-26T00:03:44.082Z,10.18
2022-10-26T00:03:57.788Z,10.18
2022-10-26T00:04:10.377Z,10.17
2022-10-26T00:04:23.984Z,10.16
2022-10-26T00:04:36.567Z,10.16
2022-10-26T00:04:49.124Z,10.15
2022-10-26T00:05:01.684Z,10.15
2022-10-26T00:05:14.304Z,10.15
2022-10-26T00:05:26.905Z,10.13
2022-10-26T00:05:39.814Z,10.12
2022-10-26T00:05:52.593Z,10.13
2022-10-26T00:06:08.370Z,10.13
2022-10-26T00:06:24.831Z,10.12
2022-10-26T00:06:37.529Z,10.11
2022-10-26T00:06:50.080Z,10.10
2022-10-26T00:07:02.656Z,10.10
2022-10-26T00:07:15.373Z,10.09
2022-10-26T00:07:30.163Z,10.09
2022-10-26T00:07:42.833Z,10.09
2022-10-26T00:07:55.412Z,10.07
2022-10-26T00:08:08.485Z,10.06
2022-10-26T00:08:21.066Z,10.06
2022-10-26T00:08:33.950Z,10.05
2022-10-26T00:08:48.451Z,10.03
2022-10-26T00:09:01.188Z,10.05
2022-10-26T00:09:13.825Z,10.04
2022-10-26T00:09:26.523Z,10.04
2022-10-26T00:09:39.107Z,10.03
2022-10-26T00:09:51.688Z,10.03
2022-10-26T00:10:04.997Z,10.03
2022-10-26T00:10:17.577Z,10.01
2022-10-26T00:10:31.719Z,10.02
2022-10-26T00:10:45.506Z,10.03
2022-10-26T00:10:58.612Z,10.02
2022-10-26T00:11:11.893Z,10.02
2022-10-26T00:11:24.706Z,9.99
2022-10-26T00:11:37.264Z,10.00
2022-10-26T00:11:49.824Z,9.99
2022-10-26T00:12:03.051Z,9.99
2022-10-26T00:12:16.647Z,10.00
2022-10-26T00:12:29.330Z,9.99
2022-10-26T00:12:41.981Z,9.98
2022-10-26T00:12:54.530Z,9.96
2022-10-26T00:13:11.058Z,9.95
2022-10-26T00:13:23.897Z,9.94
2022-10-26T00:13:38.088Z,9.93
2022-10-26T00:13:51.217Z,9.92
2022-10-26T00:14:04.028Z,9.90
2022-10-26T00:14:16.614Z,9.90
2022-10-26T00:14:29.611Z,9.89
2022-10-26T00:14:42.177Z,9.90
2022-10-26T00:14:55.757Z,9.89
2022-10-26T00:15:09.214Z,9.88
2022-10-26T00:15:22.017Z,9.86
2022-10-26T00:15:34.661Z,9.87
2022-10-26T00:15:47.298Z,9.85
2022-10-26T00:16:21.526Z,9.85
2022-10-26T00:16:34.142Z,9.84
2022-10-26T00:16:46.771Z,9.85
2022-10-26T00:16:59.361Z,9.84
2022-10-26T00:17:11.946Z,9.84
2022-10-26T00:17:24.502Z,9.84
2022-10-26T00:17:37.088Z,9.83
2022-10-26T00:17:52.264Z,9.83
2022-10-26T00:18:04.914Z,9.82
2022-10-26T00:18:17.684Z,9.81
2022-10-26T00:18:30.300Z,9.82
2022-10-26T00:18:44.891Z,9.82
2022-10-26T00:18:57.497Z,9.80
2022-10-26T00:19:10.171Z,9.82
2022-10-26T00:19:23.937Z,9.80
2022-10-26T00:19:38.163Z,9.81
2022-10-26T00:19:50.732Z,9.81
2022-10-26T00:20:04.071Z,9.80
2022-10-26T00:20:17.010Z,9.81
2022-10-26T00:20:29.591Z,9.81
2022-10-26T00:20:43.453Z,9.80
2022-10-26T00:20:56.020Z,9.81
2022-10-26T00:21:10.513Z,9.80
2022-10-26T00:21:23.104Z,9.80
2022-10-26T00:21:35.795Z,9.79
2022-10-26T00:21:49.777Z,9.77
2022-10-26T00:22:02.353Z,9.78
2022-10-26T00:22:14.979Z,9.77
2022-10-26T00:22:27.560Z,9.77
2022-10-26T00:22:40.401Z,9.77
2022-10-26T00:22:53.011Z,9.76
2022-10-26T00:23:05.580Z,9.77
2022-10-26T00:23:19.139Z,9.75
2022-10-26T00:23:31.856Z,9.75
2022-10-26T00:23:44.742Z,9.74
2022-10-26T00:23:59.283Z,9.74
2022-10-26T00:24:12.535Z,9.75
2022-10-26T00:24:25.150Z,9.73
2022-10-26T00:24:37.769Z,9.73
2022-10-26T00:24:51.527Z,9.73
2022-10-26T00:25:04.742Z,9.71
2022-10-26T00:25:17.443Z,9.73
2022-10-26T00:25:30.769Z,9.73
2022-10-26T00:25:43.349Z,9.73
2022-10-26T00:25:57.048Z,9.72
2022-10-26T00:26:11.286Z,9.72
2022-10-26T00:26:24.069Z,9.73
2022-10-26T00:26:36.664Z,9.72
2022-10-26T00:26:49.243Z,9.72
2022-10-26T00:27:01.824Z,9.71
2022-10-26T00:27:14.538Z,9.70
2022-10-26T00:27:27.265Z,9.71
2022-10-26T00:27:39.829Z,9.71
2022-10-26T00:27:53.096Z,9.70
2022-10-26T00:28:06.713Z,9.70
2022-10-26T00:28:19.310Z,9.70
2022-10-26T00:28:32.388Z,9.70
2022-10-26T00:28:45.018Z,9.70
2022-10-26T00:28:58.313Z,9.70
2022-10-26T00:29:11.854Z,9.70
2022-10-26T00:29:25.454Z,9.69
2022-10-26T00:29:38.201Z,9.69
2022-10-26T00:29:50.774Z,9.69
2022-10-26T00:30:04.744Z,9.69
2022-10-26T00:30:17.544Z,9.69
2022-10-26T00:30:30.352Z,9.69
2022-10-26T00:30:42.920Z,9.69
2022-10-26T00:30:55.572Z,9.69
2022-10-26T00:31:13.165Z,9.69
2022-10-26T00:31:25.814Z,9.69
2022-10-26T00:31:39.300Z,9.69
2022-10-26T00:31:51.898Z,9.69
2022-10-26T00:32:04.635Z,9.67
2022-10-26T00:32:17.241Z,9.67
2022-10-26T00:32:30.039Z,9.67
2022-10-26T00:32:43.726Z,9.67
2022-10-26T00:32:56.299Z,9.67
2022-10-26T00:33:12.827Z,9.65
2022-10-26T00:33:25.494Z,9.67
2022-10-26T00:33:38.108Z,9.65
2022-10-26T00:33:54.363Z,9.64
2022-10-26T00:34:07.949Z,9.64
2022-10-26T00:34:20.696Z,9.64
2022-10-26T00:34:33.311Z,9.64
2022-10-26T00:34:45.900Z,9.63
2022-10-26T00:35:06.080Z,9.63
2022-10-26T00:35:44.918Z,9.64
2022-10-26T00:35:59.633Z,9.64
2022-10-26T00:36:14.623Z,9.63
2022-10-26T00:36:27.354Z,9.63
2022-10-26T00:36:39.884Z,9.63
2022-10-26T00:36:52.478Z,9.64
2022-10-26T00:37:05.068Z,9.64
2022-10-26T00:37:18.638Z,9.63
2022-10-26T00:37:31.228Z,9.64
2022-10-26T00:37:43.806Z,9.63
2022-10-26T00:37:56.370Z,9.63
2022-10-26T00:38:09.331Z,9.63
2022-10-26T00:38:22.948Z,9.63
2022-10-26T00:38:35.581Z,9.62
2022-10-26T00:38:49.242Z,9.63
2022-10-26T00:39:01.833Z,9.61
2022-10-26T00:39:14.608Z,9.60
2022-10-26T00:39:27.317Z,9.61
2022-10-26T00:39:40.889Z,9.61
2022-10-26T00:39:53.455Z,9.60
2022-10-26T00:40:07.328Z,9.61
2022-10-26T00:40:19.925Z,9.59
2022-10-26T00:40:32.520Z,9.59
2022-10-26T00:40:45.158Z,9.58
2022-10-26T00:40:58.923Z,9.58
2022-10-26T00:41:14.743Z,9.58
2022-10-26T00:41:30.972Z,9.58
2022-10-26T00:41:43.567Z,9.57
2022-10-26T00:41:56.314Z,9.57
2022-10-26T00:42:12.685Z,9.56
2022-10-26T00:42:25.319Z,9.56
2022-10-26T00:42:39.043Z,9.57
2022-10-26T00:42:51.857Z,9.55
2022-10-26T00:43:06.610Z,9.56
2022-10-26T00:43:36.030Z,9.55
2022-10-26T00:43:49.111Z,9.55
2022-10-26T00:44:02.849Z,9.54
2022-10-26T00:44:56.723Z,9.55
2022-10-26T00:45:20.501Z,9.55
2022-10-26T00:45:33.302Z,9.54
2022-10-26T00:45:48.883Z,9.54
2022-10-26T00:46:03.236Z,9.55
2022-10-26T00:46:20.149Z,9.54
2022-10-26T00:46:36.642Z,9.55
2022-10-26T00:46:49.375Z,9.55
2022-10-26T00:47:02.081Z,9.56
2022-10-26T00:47:18.688Z,9.56
2022-10-26T00:47:40.308Z,9.56
2022-10-26T00:47:57.776Z,9.57
2022-10-26T00:48:19.680Z,9.57
2022-10-26T00:48:36.128Z,9.58
2022-10-26T00:48:53.006Z,9.58
2022-10-26T00:49:13.252Z,9.57
2022-10-26T00:49:26.114Z,9.58
2022-10-26T00:49:39.010Z,9.57
2022-10-26T00:49:57.120Z,9.56
2022-10-26T00:50:15.313Z,9.56
2022-10-26T00:50:31.320Z,9.56
2022-10-26T00:50:47.522Z,9.57
2022-10-26T00:51:04.464Z,9.56
2022-10-26T00:51:24.047Z,9.57
2022-10-26T00:51:40.468Z,9.56
2022-10-26T00:51:53.967Z,9.57
2022-10-26T00:52:09.941Z,9.58
2022-10-26T00:52:23.376Z,9.57
2022-10-26T00:52:37.766Z,9.58
2022-10-26T00:52:51.886Z,9.59
2022-10-26T00:53:06.973Z,9.59
2022-10-26T00:53:20.608Z,9.58
2022-10-26T00:53:33.617Z,9.58
2022-10-26T00:53:46.499Z,9.60
2022-10-26T00:54:01.900Z,9.59
2022-10-26T00:54:18.426Z,9.60
2022-10-26T00:54:31.196Z,9.60
2022-10-26T00:54:44.056Z,9.60
2022-10-26T00:54:56.901Z,9.62
2022-10-26T00:55:09.951Z,9.61
2022-10-26T00:55:28.006Z,9.62
2022-10-26T00:55:44.746Z,9.62
2022-10-26T00:55:57.670Z,9.62
2022-10-26T00:56:10.369Z,9.64
2022-10-26T00:56:23.982Z,9.63
2022-10-26T00:56:36.980Z,9.64
2022-10-26T00:56:53.080Z,9.64
2022-10-26T00:57:06.463Z,9.63
2022-10-26T00:57:19.213Z,9.63
2022-10-26T00:57:32.079Z,9.64
2022-10-26T00:57:44.778Z,9.64
2022-10-26T00:57:58.570Z,9.63
2022-10-26T00:58:12.966Z,9.63
2022-10-26T00:58:26.712Z,9.63
2022-10-26T00:58:39.828Z,9.63
2022-10-26T00:58:52.758Z,9.63
2022-10-26T00:59:08.120Z,9.63
2022-10-26T00:59:22.857Z,9.64
2022-10-26T00:59:36.575Z,9.63
2022-10-26T00:59:52.538Z,9.64
2022-10-26T01:00:07.202Z,9.64
2022-10-26T01:00:21.120Z,9.63
2022-10-26T01:00:33.708Z,9.64
2022-10-26T01:00:46.374Z,9.62
2022-10-26T01:00:59.938Z,9.62
2022-10-26T01:01:12.810Z,9.61
2022-10-26T01:01:25.647Z,9.60
2022-10-26T01:01:41.788Z,9.59
2022-10-26T01:01:54.428Z,9.60
2022-10-26T01:02:07.106Z,9.58
2022-10-26T01:02:19.832Z,9.58
2022-10-26T01:02:32.445Z,9.58
2022-10-26T01:02:47.892Z,9.58
2022-10-26T01:03:05.910Z,9.57
2022-10-26T01:03:19.232Z,9.57
2022-10-26T01:03:33.084Z,9.56
2022-10-26T01:03:46.839Z,9.57
2022-10-26T01:04:00.888Z,9.56
2022-10-26T01:04:15.698Z,9.56
2022-10-26T01:04:29.339Z,9.56
2022-10-26T01:04:42.007Z,9.56
2022-10-26T01:04:55.722Z,9.56
2022-10-26T01:05:09.407Z,9.57
2022-10-26T01:05:22.425Z,9.56
2022-10-26T01:05:38.179Z,9.57
2022-10-26T01:05:54.624Z,9.57
2022-10-26T01:06:09.577Z,9.56
2022-10-26T01:06:22.139Z,9.56
2022-10-26T01:06:37.021Z,9.57
2022-10-26T01:06:50.419Z,9.58
2022-10-26T01:07:06.312Z,9.59
2022-10-26T01:07:19.508Z,9.58
2022-10-26T01:07:33.039Z,9.58
2022-10-26T01:07:47.920Z,9.58
2022-10-26T01:08:02.061Z,9.60
2022-10-26T01:08:17.156Z,9.59
2022-10-26T01:08:30.588Z,9.59
2022-10-26T01:08:45.340Z,9.59
2022-10-26T01:08:58.136Z,9.58
2022-10-26T01:09:12.665Z,9.59
2022-10-26T01:09:25.823Z,9.58
2022-10-26T01:09:38.767Z,9.58
2022-10-26T01:09:52.152Z,9.58
2022-10-26T01:10:07.500Z,9.57
2022-10-26T01:10:20.669Z,9.59
2022-10-26T01:10:34.736Z,9.58
2022-10-26T01:10:47.954Z,9.57
2022-10-26T01:11:01.635Z,9.58
2022-10-26T01:11:14.457Z,9.58
2022-10-26T01:11:28.046Z,9.58
2022-10-26T01:11:40.661Z,9.58
2022-10-26T01:11:53.273Z,9.59
2022-10-26T01:12:06.066Z,9.59
2022-10-26T01:12:18.655Z,9.58
2022-10-26T01:12:31.248Z,9.57
2022-10-26T01:12:44.894Z,9.57
2022-10-26T01:12:59.376Z,9.57
2022-10-26T01:13:14.468Z,9.57
2022-10-26T01:13:31.056Z,9.55
2022-10-26T01:13:46.723Z,9.57
2022-10-26T01:14:01.890Z,9.57
2022-10-26T01:14:18.238Z,9.56
2022-10-26T01:14:31.948Z,9.56
2022-10-26T01:14:44.945Z,9.56
2022-10-26T01:14:58.667Z,9.57
2022-10-26T01:15:12.058Z,9.56
2022-10-26T01:15:31.403Z,9.56
2022-10-26T01:15:52.025Z,9.55
2022-10-26T01:16:21.708Z,9.57
2022-10-26T01:16:57.650Z,9.57
2022-10-26T01:17:25.468Z,9.57
2022-10-26T01:17:53.704Z,9.58
2022-10-26T01:18:13.387Z,9.58
2022-10-26T01:18:36.167Z,9.58
2022-10-26T01:18:58.554Z,9.59
2022-10-26T01:19:52.844Z,9.59
2022-10-26T01:20:44.198Z,9.60
2022-10-26T01:21:17.696Z,9.60
2022-10-26T01:21:41.714Z,9.60
2022-10-26T01:21:58.932Z,9.60
2022-10-26T01:22:15.125Z,9.60
2022-10-26T01:22:34.542Z,9.58
2022-10-26T01:22:56.755Z,9.59
2022-10-26T01:23:17.443Z,9.59
2022-10-26T01:23:40.807Z,9.58
2022-10-26T01:24:20.687Z,9.55
2022-10-26T01:24:50.792Z,9.54
2022-10-26T01:25:14.416Z,9.52
2022-10-26T01:25:44.372Z,9.51
2022-10-26T01:26:42.174Z,9.49
2022-10-26T01:27:20.058Z,9.50
2022-10-26T01:27:35.928Z,9.50
2022-10-26T01:27:51.437Z,9.50
2022-10-26T01:28:13.993Z,9.49
2022-10-26T01:28:42.784Z,9.50
2022-10-26T01:29:14.884Z,9.48
2022-10-26T01:29:59.616Z,9.48
2022-10-26T01:30:25.278Z,9.47
2022-10-26T01:30:41.170Z,9.47
2022-10-26T01:30:55.901Z,9.47
2022-10-26T01:31:13.324Z,9.47
2022-10-26T01:31:30.352Z,9.47
2022-10-26T01:31:49.924Z,9.48
2022-10-26T01:32:10.264Z,9.47
2022-10-26T01:32:27.434Z,9.47
2022-10-26T01:32:45.732Z,9.47
2022-10-26T01:33:24.158Z,9.47
2022-10-26T01:33:42.530Z,9.48
2022-10-26T01:34:00.190Z,9.48
2022-10-26T01:34:18.866Z,9.46
2022-10-26T01:34:36.817Z,9.48
2022-10-26T01:34:53.886Z,9.47
2022-10-26T01:35:11.536Z,9.48
2022-10-26T01:35:31.414Z,9.48
2022-10-26T01:35:55.743Z,9.49
2022-10-26T01:36:13.822Z,9.49
2022-10-26T01:36:35.052Z,9.48
2022-10-26T01:36:53.164Z,9.48
2022-10-26T01:37:11.026Z,9.49
2022-10-26T01:37:28.650Z,9.48
2022-10-26T01:37:47.124Z,9.47
2022-10-26T01:38:11.402Z,9.49
2022-10-26T01:38:30.816Z,9.48
2022-10-26T01:38:52.802Z,9.49
2022-10-26T01:39:13.781Z,9.49
2022-10-26T01:39:37.022Z,9.51
2022-10-26T01:39:54.565Z,9.51
2022-10-26T01:40:11.242Z,9.51
2022-10-26T01:40:31.242Z,9.52
2022-10-26T01:40:49.171Z,9.52
2022-10-26T01:41:08.803Z,9.51
2022-10-26T01:41:26.722Z,9.53
2022-10-26T01:41:46.315Z,9.53
2022-10-26T01:42:02.904Z,9.52
2022-10-26T01:42:18.181Z,9.53
2022-10-26T01:42:32.190Z,9.54
2022-10-26T01:42:51.285Z,9.53
2022-10-26T01:43:09.606Z,9.55
2022-10-26T01:43:26.389Z,9.54
2022-10-26T01:43:43.496Z,9.55
2022-10-26T01:43:59.340Z,9.56
2022-10-26T01:44:18.007Z,9.55
2022-10-26T01:44:34.800Z,9.56
2022-10-26T01:44:52.061Z,9.56
2022-10-26T01:45:10.995Z,9.57
2022-10-26T01:45:25.789Z,9.57
2022-10-26T01:45:42.204Z,9.57
2022-10-26T01:45:56.251Z,9.56
2022-10-26T01:46:10.918Z,9.58
2022-10-26T01:46:26.423Z,9.58
2022-10-26T01:46:44.661Z,9.57
2022-10-26T01:46:59.244Z,9.56
2022-10-26T01:47:14.762Z,9.55
2022-10-26T01:47:28.992Z,9.55
2022-10-26T01:47:43.163Z,9.55
2022-10-26T01:47:59.472Z,9.55
2022-10-26T01:48:16.345Z,9.56
2022-10-26T01:48:30.171Z,9.55
2022-10-26T01:48:45.088Z,9.55
2022-10-26T01:49:03.632Z,9.57
2022-10-26T01:49:20.098Z,9.57
2022-10-26T01:49:36.107Z,9.57
2022-10-26T01:49:55.070Z,9.58
2022-10-26T01:50:10.231Z,9.58
2022-10-26T01:50:23.663Z,9.60
2022-10-26T01:50:37.572Z,9.60
2022-10-26T01:50:53.814Z,9.60
2022-10-26T01:51:09.557Z,9.61
2022-10-26T01:51:24.586Z,9.61
2022-10-26T01:51:39.532Z,9.61
2022-10-26T01:51:52.102Z,9.62
2022-10-26T01:52:05.039Z,9.62
2022-10-26T01:52:18.848Z,9.61
2022-10-26T01:52:31.601Z,9.62
2022-10-26T01:52:44.156Z,9.60
2022-10-26T01:52:57.734Z,9.61
2022-10-26T01:53:12.372Z,9.60
2022-10-26T01:53:27.127Z,9.62
2022-10-26T01:53:45.908Z,9.63
2022-10-26T01:53:59.115Z,9.63
2022-10-26T01:54:12.707Z,9.64
2022-10-26T01:54:25.374Z,9.64
2022-10-26T01:54:38.575Z,9.65
2022-10-26T01:54:51.174Z,9.64
2022-10-26T01:55:07.175Z,9.65
2022-10-26T01:55:44.979Z,9.67
2022-10-26T01:55:59.552Z,9.67
2022-10-26T01:56:19.303Z,9.65
2022-10-26T01:56:36.712Z,9.68
2022-10-26T01:56:52.031Z,9.68
2022-10-26T01:57:06.828Z,9.69
2022-10-26T01:57:22.604Z,9.70
2022-10-26T01:57:37.245Z,9.70
2022-10-26T01:57:52.794Z,9.71
2022-10-26T01:58:11.379Z,9.72
2022-10-26T01:58:46.948Z,9.73
2022-10-26T01:59:19.588Z,9.74
2022-10-26T01:59:50.121Z,9.74
2022-10-26T02:00:09.719Z,9.75
2022-10-26T02:00:22.404Z,9.76
2022-10-26T02:00:42.890Z,9.76
2022-10-26T02:01:02.600Z,9.77
2022-10-26T02:01:30.169Z,9.76
2022-10-26T02:02:08.322Z,9.79
2022-10-26T02:02:45.333Z,9.80
2022-10-26T02:03:07.526Z,9.81
2022-10-26T02:03:28.339Z,9.82
2022-10-26T02:03:46.501Z,9.83
2022-10-26T02:04:06.601Z,9.83
2022-10-26T02:04:33.778Z,9.84
2022-10-26T02:05:03.198Z,9.85
2022-10-26T02:05:32.344Z,9.85
2022-10-26T02:05:58.792Z,9.87
2022-10-26T02:06:18.474Z,9.87
2022-10-26T02:06:41.232Z,9.87
2022-10-26T02:07:02.489Z,9.88
2022-10-26T02:07:20.958Z,9.89
2022-10-26T02:07:42.239Z,9.88
2022-10-26T02:08:04.982Z,9.90
2022-10-26T02:08:30.502Z,9.92
2022-10-26T02:09:07.731Z,9.92
2022-10-26T02:09:29.123Z,9.92
2022-10-26T02:09:51.582Z,9.91
2022-10-26T02:10:16.706Z,9.92
2022-10-26T02:10:44.098Z,9.93
2022-10-26T02:11:09.352Z,9.94
2022-10-26T02:11:32.636Z,9.93
2022-10-26T02:11:48.804Z,9.95
2022-10-26T02:12:05.741Z,9.95
2022-10-26T02:12:27.248Z,9.95
2022-10-26T02:12:49.232Z,9.96
2022-10-26T02:13:06.908Z,9.96
2022-10-26T02:13:31.754Z,9.97
2022-10-26T02:13:51.724Z,9.98
2022-10-26T02:14:12.655Z,9.98
2022-10-26T02:14:34.845Z,9.98
2022-10-26T02:14:50.040Z,10.00
2022-10-26T02:15:09.703Z,10.01
2022-10-26T02:15:25.161Z,10.00
2022-10-26T02:15:47.254Z,10.01
2022-10-26T02:16:06.228Z,10.01
2022-10-26T02:16:25.058Z,10.01
2022-10-26T02:16:44.958Z,10.02
2022-10-26T02:17:05.035Z,10.02
2022-10-26T02:17:24.662Z,10.02
2022-10-26T02:17:45.591Z,10.03
2022-10-26T02:18:01.202Z,10.03
2022-10-26T02:18:22.878Z,10.02
2022-10-26T02:18:42.130Z,10.05
2022-10-26T02:19:02.771Z,10.06
2022-10-26T02:19:25.943Z,10.07
2022-10-26T02:19:44.145Z,10.05
2022-10-26T02:20:02.826Z,10.06
2022-10-26T02:20:21.339Z,10.07
2022-10-26T02:20:40.128Z,10.07
2022-10-26T02:20:58.794Z,10.10
2022-10-26T02:21:18.035Z,10.10
2022-10-26T02:21:38.295Z,10.09
2022-10-26T02:21:57.376Z,10.10
2022-10-26T02:22:15.972Z,10.10
2022-10-26T02:22:32.985Z,10.11
2022-10-26T02:22:48.237Z,10.11
2022-10-26T02:23:05.230Z,10.13
2022-10-26T02:23:19.038Z,10.14
2022-10-26T02:23:35.622Z,10.14
2022-10-26T02:23:52.138Z,10.15
2022-10-26T02:24:23.106Z,10.17
2022-10-26T02:24:37.856Z,10.18
2022-10-26T02:24:53.862Z,10.18
2022-10-26T02:25:11.444Z,10.19
2022-10-26T02:25:28.904Z,10.20
2022-10-26T02:25:45.486Z,10.21
2022-10-26T02:26:02.310Z,10.22
2022-10-26T02:26:18.438Z,10.24
2022-10-26T02:26:33.177Z,10.24
2022-10-26T02:26:48.305Z,10.25
2022-10-26T02:27:04.664Z,10.24
2022-10-26T02:27:23.864Z,10.26
2022-10-26T02:27:42.264Z,10.26
2022-10-26T02:27:59.348Z,10.27
2022-10-26T02:28:17.618Z,10.27
2022-10-26T02:28:36.560Z,10.29
2022-10-26T02:28:54.892Z,10.29
2022-10-26T02:29:10.112Z,10.29
2022-10-26T02:29:24.440Z,10.31
2022-10-26T02:29:38.771Z,10.30
2022-10-26T02:29:54.580Z,10.31
2022-10-26T02:30:10.770Z,10.31
2022-10-26T02:30:23.577Z,10.30
2022-10-26T02:30:38.679Z,10.31
2022-10-26T02:30:56.652Z,10.31
2022-10-26T02:31:11.316Z,10.31
2022-10-26T02:31:26.333Z,10.33
2022-10-26T02:31:41.758Z,10.33
2022-10-26T02:31:55.944Z,10.34
2022-10-26T02:32:09.850Z,10.33
2022-10-26T02:32:24.708Z,10.34
2022-10-26T02:32:43.087Z,10.35
2022-10-26T02:32:58.164Z,10.36
2022-10-26T02:33:13.945Z,10.37
2022-10-26T02:33:33.060Z,10.37
2022-10-26T02:34:10.713Z,10.39
2022-10-26T02:34:27.399Z,10.41
2022-10-26T02:34:42.844Z,10.41
2022-10-26T02:34:58.070Z,10.41
2022-10-26T02:35:14.586Z,10.43
2022-10-26T02:35:30.912Z,10.43
2022-10-26T02:35:48.189Z,10.43
2022-10-26T02:36:04.204Z,10.44
2022-10-26T02:36:23.480Z,10.44
2022-10-26T02:36:39.590Z,10.44
2022-10-26T02:36:57.522Z,10.45
2022-10-26T02:37:11.014Z,10.46
2022-10-26T02:37:26.405Z,10.45
2022-10-26T02:37:42.127Z,10.45
2022-10-26T02:37:57.652Z,10.46
2022-10-26T02:38:13.240Z,10.47
2022-10-26T02:38:28.328Z,10.47
2022-10-26T02:38:43.771Z,10.47
2022-10-26T02:38:58.652Z,10.47
2022-10-26T02:39:15.810Z,10.48
2022-10-26T02:39:32.686Z,10.50
2022-10-26T02:39:47.182Z,10.48
2022-10-26T02:40:02.782Z,10.50
2022-10-26T02:40:20.800Z,10.51
2022-10-26T02:40:36.928Z,10.50
2022-10-26T02:40:51.952Z,10.51
2022-10-26T02:41:05.785Z,10.51
2022-10-26T02:41:20.354Z,10.51
2022-10-26T02:41:34.216Z,10.51
2022-10-26T02:41:49.934Z,10.51
2022-10-26T02:42:06.156Z,10.52
2022-10-26T02:42:19.950Z,10.54
2022-10-26T02:42:33.810Z,10.53
2022-10-26T02:42:47.604Z,10.52
2022-10-26T02:43:04.991Z,10.53
2022-10-26T02:43:23.047Z,10.53
2022-10-26T02:43:39.501Z,10.54
2022-10-26T02:43:57.220Z,10.55
2022-10-26T02:44:16.974Z,10.54
2022-10-26T02:44:31.751Z,10.56
2022-10-26T02:44:50.748Z,10.57
2022-10-26T02:45:07.310Z,10.58
2022-10-26T02:45:24.219Z,10.58
2022-10-26T02:45:43.447Z,10.57
2022-10-26T02:46:05.299Z,10.57
2022-10-26T02:46:21.060Z,10.59
2022-10-26T02:46:34.089Z,10.60
2022-10-26T02:46:47.128Z,10.60
2022-10-26T02:47:00.274Z,10.60
2022-10-26T02:47:14.608Z,10.60
2022-10-26T02:47:28.040Z,10.60
2022-10-26T02:47:40.804Z,10.60
2022-10-26T02:47:54.748Z,10.61
2022-10-26T02:48:07.640Z,10.60
2022-10-26T02:48:21.466Z,10.62
2022-10-26T02:48:34.241Z,10.62
2022-10-26T02:48:46.999Z,10.63
2022-10-26T02:49:01.157Z,10.63
2022-10-26T02:49:14.048Z,10.62
2022-10-26T02:49:26.876Z,10.63
2022-10-26T02:49:39.892Z,10.63
2022-10-26T02:49:53.089Z,10.64
2022-10-26T02:50:06.954Z,10.63
2022-10-26T02:50:25.375Z,10.64
2022-10-26T02:50:44.656Z,10.64
2022-10-26T02:51:03.749Z,10.65
2022-10-26T02:51:21.088Z,10.65
2022-10-26T02:51:40.650Z,10.64
2022-10-26T02:52:01.527Z,10.66
2022-10-26T02:52:22.562Z,10.66
2022-10-26T02:52:44.459Z,10.66
2022-10-26T02:53:03.424Z,10.67
2022-10-26T02:53:22.315Z,10.66
2022-10-26T02:53:40.063Z,10.67
2022-10-26T02:53:58.004Z,10.68
2022-10-26T02:54:16.296Z,10.67
2022-10-26T02:54:35.130Z,10.68
2022-10-26T02:54:54.600Z,10.68
2022-10-26T02:55:12.648Z,10.68
2022-10-26T02:55:30.545Z,10.68
2022-10-26T02:55:48.491Z,10.68
2022-10-26T02:56:08.396Z,10.69
2022-10-26T02:56:26.658Z,10.68
2022-10-26T02:56:44.260Z,10.67
2022-10-26T02:57:01.865Z,10.68
2022-10-26T02:57:18.749Z,10.67
2022-10-26T02:57:39.753Z,10.68
2022-10-26T02:57:59.216Z,10.68
2022-10-26T02:58:17.382Z,10.68
2022-10-26T02:58:37.393Z,10.68
2022-10-26T02:58:54.076Z,10.70
2022-10-26T02:59:11.342Z,10.69
2022-10-26T02:59:30.038Z,10.69
2022-10-26T02:59:47.643Z,10.68
2022-10-26T03:00:01.274Z,10.70
2022-10-26T03:00:17.004Z,10.68
2022-10-26T03:00:31.145Z,10.70
2022-10-26T03:00:45.793Z,10.70
2022-10-26T03:01:00.201Z,10.69
2022-10-26T03:01:14.263Z,10.70
2022-10-26T03:01:28.321Z,10.70
2022-10-26T03:01:42.180Z,10.70
2022-10-26T03:01:55.790Z,10.70
2022-10-26T03:02:08.966Z,10.70
2022-10-26T03:02:24.273Z,10.70
2022-10-26T03:02:37.060Z,10.70
2022-10-26T03:02:54.609Z,10.71
2022-10-26T03:03:07.636Z,10.72
2022-10-26T03:03:20.893Z,10.70
2022-10-26T03:03:35.193Z,10.70
2022-10-26T03:03:49.521Z,10.70
2022-10-26T03:04:02.444Z,10.70
2022-10-26T03:04:15.103Z,10.71
2022-10-26T03:04:31.317Z,10.70
2022-10-26T03:04:43.938Z,10.71
2022-10-26T03:04:56.696Z,10.71
2022-10-26T03:05:15.880Z,10.72
2022-10-26T03:05:32.509Z,10.72
2022-10-26T03:05:45.138Z,10.72
2022-10-26T03:05:57.798Z,10.73
2022-10-26T03:06:10.413Z,10.72
2022-10-26T03:06:23.319Z,10.74
2022-10-26T03:06:35.912Z,10.74
2022-10-26T03:06:53.676Z,10.73
2022-10-26T03:07:06.247Z,10.74
2022-10-26T03:07:23.168Z,10.74
2022-10-26T03:07:35.817Z,10.75
2022-10-26T03:07:48.398Z,10.76
2022-10-26T03:08:01.872Z,10.76
2022-10-26T03:08:15.715Z,10.75
2022-10-26T03:08:46.286Z,10.75
2022-10-26T03:08:58.936Z,10.75
2022-10-26T03:09:11.608Z,10.74
2022-10-26T03:09:25.685Z,10.75
2022-10-26T03:09:38.524Z,10.75
2022-10-26T03:09:52.443Z,10.75
2022-10-26T03:10:05.868Z,10.74
2022-10-26T03:10:18.808Z,10.74
2022-10-26T03:10:33.879Z,10.74
2022-10-26T03:10:46.714Z,10.75
2022-10-26T03:10:59.360Z,10.74
2022-10-26T03:11:11.952Z,10.75
2022-10-26T03:11:25.550Z,10.74
2022-10-26T03:11:38.132Z,10.75
2022-10-26T03:11:50.761Z,10.74
2022-10-26T03:12:03.713Z,10.75
2022-10-26T03:12:16.331Z,10.75
2022-10-26T03:12:28.954Z,10.74
2022-10-26T03:12:41.592Z,10.74
2022-10-26T03:12:55.451Z,10.74
2022-10-26T03:13:08.090Z,10.74
2022-10-26T03:13:20.682Z,10.74
2022-10-26T03:13:33.536Z,10.74
2022-10-26T03:13:46.160Z,10.74
2022-10-26T03:13:58.775Z,10.72
2022-10-26T03:14:12.356Z,10.74
2022-10-26T03:14:24.946Z,10.72
2022-10-26T03:14:37.533Z,10.72
2022-10-26T03:14:50.132Z,10.73
2022-10-26T03:15:02.757Z,10.73
2022-10-26T03:15:15.750Z,10.73
2022-10-26T03:15:28.389Z,10.73
2022-10-26T03:15:41.506Z,10.73
2022-10-26T03:15:57.303Z,10.72
2022-10-26T03:16:11.438Z,10.71
2022-10-26T03:16:24.238Z,10.73
2022-10-26T03:16:36.859Z,10.73
2022-10-26T03:17:02.077Z,10.73
2022-10-26T03:17:14.862Z,10.74
2022-10-26T03:17:28.457Z,10.72
2022-10-26T03:17:41.291Z,10.74
2022-10-26T03:17:53.907Z,10.74
2022-10-26T03:18:07.371Z,10.72
2022-10-26T03:18:20.184Z,10.73
2022-10-26T03:18:32.800Z,10.73
2022-10-26T03:18:45.411Z,10.74
2022-10-26T03:18:59.020Z,10.73
2022-10-26T03:19:11.844Z,10.74
2022-10-26T03:19:24.530Z,10.74
2022-10-26T03:19:37.110Z,10.75
2022-10-26T03:19:49.700Z,10.75
2022-10-26T03:20:02.345Z,10.75
2022-10-26T03:20:15.237Z,10.75
2022-10-26T03:20:28.973Z,10.74
2022-10-26T03:20:44.908Z,10.75
2022-10-26T03:20:57.501Z,10.75
2022-10-26T03:21:10.216Z,10.76
2022-10-26T03:21:22.801Z,10.76
2022-10-26T03:21:35.469Z,10.76
2022-10-26T03:21:49.142Z,10.75
2022-10-26T03:22:01.812Z,10.76
2022-10-26T03:22:14.404Z,10.76
2022-10-26T03:22:27.002Z,10.76
2022-10-26T03:22:39.624Z,10.76
2022-10-26T03:22:52.216Z,10.75
2022-10-26T03:23:04.998Z,10.76
2022-10-26T03:23:18.578Z,10.75
2022-10-26T03:23:31.206Z,10.75
2022-10-26T03:23:43.814Z,10.74
2022-10-26T03:23:56.493Z,10.75
2022-10-26T03:24:09.112Z,10.74
2022-10-26T03:24:21.699Z,10.75
2022-10-26T03:24:34.324Z,10.75
2022-10-26T03:24:47.901Z,10.75
2022-10-26T03:25:00.573Z,10.75
2022-10-26T03:25:15.589Z,10.75
2022-10-26T03:25:28.282Z,10.76
2022-10-26T03:25:40.959Z,10.75
2022-10-26T03:25:56.816Z,10.75
2022-10-26T03:26:10.386Z,10.75
2022-10-26T03:26:22.951Z,10.75
2022-10-26T03:26:35.610Z,10.76
2022-10-26T03:26:48.186Z,10.74
2022-10-26T03:27:02.295Z,10.76
2022-10-26T03:27:15.807Z,10.75
2022-10-26T03:27:28.427Z,10.74
2022-10-26T03:27:41.012Z,10.76
2022-10-26T03:27:57.989Z,10.76
2022-10-26T03:28:11.598Z,10.76
2022-10-26T03:28:24.307Z,10.75
2022-10-26T03:28:36.898Z,10.76
2022-10-26T03:28:49.741Z,10.76
2022-10-26T03:29:02.468Z,10.76
2022-10-26T03:29:15.142Z,10.75
2022-10-26T03:29:27.748Z,10.75
2022-10-26T03:29:41.468Z,10.75
2022-10-26T03:29:54.532Z,10.76
2022-10-26T03:30:08.640Z,10.76
2022-10-26T03:30:21.271Z,10.77
2022-10-26T03:30:33.880Z,10.76
2022-10-26T03:30:46.454Z,10.77
2022-10-26T03:30:59.216Z,10.77
2022-10-26T03:31:14.209Z,10.77
2022-10-26T03:31:26.850Z,10.77